sensor_id;sensor_type;location;lat;lon;timestamp;P1;durP1;ratioP1;P2;durP2;ratioP2
52354;SDS011;38286;51.156;17.038;2022-08-03T00:01:20;6.38;;;5.07;;
52354;SDS011;38286;51.156;17.038;2022-08-03T00:03:45;6.88;;;5.00;;
52354;SDS011;38286;51.156;17.038;2022-08-03T00:06:11;9.68;;;5.22;;
52354;SDS011;38286;51.156;17.038;2022-08-03T00:08:37;10.18;;;4.85;;
52354;SDS011;38286;51.156;17.038;2022-08-03T00:11:02;6.75;;;5.43;;
52354;SDS011;38286;51.156;17.038;2022-08-03T00:13:28;6.72;;;5.40;;
52354;SDS011;38286;51.156;17.038;2022-08-03T00:15:54;8.88;;;5.53;;
52354;SDS011;38286;51.156;17.038;2022-08-03T00:18:20;6.53;;;5.18;;
52354;SDS011;38286;51.156;17.038;2022-08-03T00:20:45;7.43;;;5.70;;
52354;SDS011;38286;51.156;17.038;2022-08-03T00:23:11;8.48;;;5.50;;
52354;SDS011;38286;51.156;17.038;2022-08-03T00:25:37;8.43;;;5.43;;
52354;SDS011;38286;51.156;17.038;2022-08-03T00:28:03;7.30;;;5.32;;
52354;SDS011;38286;51.156;17.038;2022-08-03T00:30:30;8.23;;;5.45;;
52354;SDS011;38286;51.156;17.038;2022-08-03T00:32:56;7.55;;;5.40;;
52354;SDS011;38286;51.156;17.038;2022-08-03T00:35:22;6.47;;;5.60;;
52354;SDS011;38286;51.156;17.038;2022-08-03T00:37:48;6.88;;;5.28;;
52354;SDS011;38286;51.156;17.038;2022-08-03T00:40:14;9.98;;;5.68;;
52354;SDS011;38286;51.156;17.038;2022-08-03T00:42:47;7.63;;;5.60;;
52354;SDS011;38286;51.156;17.038;2022-08-03T00:45:15;7.65;;;5.78;;
52354;SDS011;38286;51.156;17.038;2022-08-03T00:47:42;6.97;;;5.40;;
52354;SDS011;38286;51.156;17.038;2022-08-03T00:50:08;7.78;;;5.63;;
52354;SDS011;38286;51.156;17.038;2022-08-03T00:52:34;8.23;;;5.80;;
52354;SDS011;38286;51.156;17.038;2022-08-03T00:55:00;10.35;;;5.78;;
52354;SDS011;38286;51.156;17.038;2022-08-03T00:57:26;7.22;;;5.47;;
52354;SDS011;38286;51.156;17.038;2022-08-03T00:59:53;8.55;;;5.50;;
52354;SDS011;38286;51.156;17.038;2022-08-03T01:02:18;7.57;;;5.38;;
52354;SDS011;38286;51.156;17.038;2022-08-03T01:04:44;8.50;;;5.82;;
52354;SDS011;38286;51.156;17.038;2022-08-03T01:07:21;7.70;;;5.70;;
52354;SDS011;38286;51.156;17.038;2022-08-03T01:12:43;8.35;;;5.60;;
52354;SDS011;38286;51.156;17.038;2022-08-03T01:17:48;7.15;;;5.97;;
52354;SDS011;38286;51.156;17.038;2022-08-03T01:20:17;6.80;;;5.25;;
52354;SDS011;38286;51.156;17.038;2022-08-03T01:22:49;10.30;;;6.50;;
52354;SDS011;38286;51.156;17.038;2022-08-03T01:28:28;10.02;;;6.00;;
52354;SDS011;38286;51.156;17.038;2022-08-03T01:33:25;8.48;;;5.70;;
52354;SDS011;38286;51.156;17.038;2022-08-03T10:40:04;1.95;;;1.85;;
52354;SDS011;38286;51.156;17.038;2022-08-03T10:42:31;2.35;;;2.13;;
52354;SDS011;38286;51.156;17.038;2022-08-03T10:45:09;2.63;;;2.13;;
52354;SDS011;38286;51.156;17.038;2022-08-03T10:47:39;2.67;;;1.80;;
52354;SDS011;38286;51.156;17.038;2022-08-03T10:50:05;2.03;;;1.88;;
52354;SDS011;38286;51.156;17.038;2022-08-03T10:52:31;3.00;;;2.10;;
52354;SDS011;38286;51.156;17.038;2022-08-03T10:54:57;3.53;;;2.05;;
52354;SDS011;38286;51.156;17.038;2022-08-03T10:57:45;3.38;;;1.92;;
52354;SDS011;38286;51.156;17.038;2022-08-03T11:00:22;3.50;;;2.05;;
52354;SDS011;38286;51.156;17.038;2022-08-03T11:03:08;2.25;;;1.77;;
52354;SDS011;38286;51.156;17.038;2022-08-03T11:05:38;3.17;;;1.90;;
52354;SDS011;38286;51.156;17.038;2022-08-03T11:10:52;2.28;;;1.80;;
52354;SDS011;38286;51.156;17.038;2022-08-03T11:13:20;2.88;;;1.88;;
52354;SDS011;38286;51.156;17.038;2022-08-03T11:15:47;3.53;;;1.88;;
52354;SDS011;38286;51.156;17.038;2022-08-03T11:18:15;2.17;;;1.92;;
52354;SDS011;38286;51.156;17.038;2022-08-03T11:20:44;3.95;;;2.13;;
52354;SDS011;38286;51.156;17.038;2022-08-03T11:23:10;4.10;;;1.90;;
52354;SDS011;38286;51.156;17.038;2022-08-03T11:28:40;2.20;;;2.00;;
52354;SDS011;38286;51.156;17.038;2022-08-03T11:39:42;3.00;;;1.88;;
52354;SDS011;38286;51.156;17.038;2022-08-03T11:44:57;3.78;;;1.90;;
52354;SDS011;38286;51.156;17.038;2022-08-03T11:47:24;4.90;;;2.20;;
52354;SDS011;38286;51.156;17.038;2022-08-03T11:49:53;2.83;;;1.85;;
52354;SDS011;38286;51.156;17.038;2022-08-03T11:52:19;3.30;;;2.00;;
52354;SDS011;38286;51.156;17.038;2022-08-03T11:54:49;2.38;;;1.60;;
52354;SDS011;38286;51.156;17.038;2022-08-03T11:57:27;1.55;;;1.45;;
52354;SDS011;38286;51.156;17.038;2022-08-03T11:59:56;1.60;;;1.50;;
52354;SDS011;38286;51.156;17.038;2022-08-03T12:02:22;2.08;;;1.88;;
52354;SDS011;38286;51.156;17.038;2022-08-03T12:04:51;5.93;;;1.65;;
52354;SDS011;38286;51.156;17.038;2022-08-03T12:07:17;1.73;;;1.60;;
52354;SDS011;38286;51.156;17.038;2022-08-03T12:09:43;1.77;;;1.67;;
52354;SDS011;38286;51.156;17.038;2022-08-03T12:12:29;3.90;;;1.70;;
52354;SDS011;38286;51.156;17.038;2022-08-03T12:14:54;2.83;;;1.63;;
52354;SDS011;38286;51.156;17.038;2022-08-03T12:17:20;2.65;;;1.60;;
52354;SDS011;38286;51.156;17.038;2022-08-03T12:19:46;1.70;;;1.60;;
52354;SDS011;38286;51.156;17.038;2022-08-03T12:22:11;5.50;;;2.50;;
52354;SDS011;38286;51.156;17.038;2022-08-03T12:24:41;2.00;;;1.90;;
52354;SDS011;38286;51.156;17.038;2022-08-03T12:27:07;3.95;;;2.10;;
52354;SDS011;38286;51.156;17.038;2022-08-03T12:29:33;3.25;;;1.90;;
52354;SDS011;38286;51.156;17.038;2022-08-03T12:31:59;1.70;;;1.60;;
52354;SDS011;38286;51.156;17.038;2022-08-03T12:34:43;2.00;;;1.80;;
52354;SDS011;38286;51.156;17.038;2022-08-03T12:37:12;2.08;;;1.83;;
52354;SDS011;38286;51.156;17.038;2022-08-03T12:39:38;2.97;;;2.20;;
52354;SDS011;38286;51.156;17.038;2022-08-03T12:42:04;1.83;;;1.73;;
52354;SDS011;38286;51.156;17.038;2022-08-03T12:44:30;2.03;;;1.70;;
52354;SDS011;38286;51.156;17.038;2022-08-03T12:46:57;4.40;;;1.88;;
52354;SDS011;38286;51.156;17.038;2022-08-03T12:49:24;2.50;;;1.98;;
52354;SDS011;38286;51.156;17.038;2022-08-03T12:54:22;3.30;;;2.05;;
52354;SDS011;38286;51.156;17.038;2022-08-03T12:57:22;6.13;;;1.75;;
52354;SDS011;38286;51.156;17.038;2022-08-03T12:59:42;3.10;;;1.85;;
52354;SDS011;38286;51.156;17.038;2022-08-03T13:02:18;2.85;;;1.90;;
52354;SDS011;38286;51.156;17.038;2022-08-03T13:04:45;4.15;;;1.90;;
52354;SDS011;38286;51.156;17.038;2022-08-03T13:07:12;1.55;;;1.45;;
52354;SDS011;38286;51.156;17.038;2022-08-03T13:12:12;2.75;;;1.65;;
52354;SDS011;38286;51.156;17.038;2022-08-03T13:14:38;5.32;;;2.13;;
52354;SDS011;38286;51.156;17.038;2022-08-03T13:17:04;2.53;;;1.90;;
52354;SDS011;38286;51.156;17.038;2022-08-03T13:19:31;2.45;;;2.03;;
52354;SDS011;38286;51.156;17.038;2022-08-03T13:21:57;10.48;;;2.10;;
52354;SDS011;38286;51.156;17.038;2022-08-03T13:24:23;7.18;;;1.85;;
52354;SDS011;38286;51.156;17.038;2022-08-03T13:26:49;2.40;;;1.60;;
52354;SDS011;38286;51.156;17.038;2022-08-03T13:29:16;2.47;;;1.67;;
52354;SDS011;38286;51.156;17.038;2022-08-03T13:31:42;2.00;;;1.35;;
52354;SDS011;38286;51.156;17.038;2022-08-03T13:34:07;5.90;;;1.77;;
52354;SDS011;38286;51.156;17.038;2022-08-03T13:36:33;1.50;;;1.40;;
52354;SDS011;38286;51.156;17.038;2022-08-03T13:38:59;2.33;;;1.70;;
52354;SDS011;38286;51.156;17.038;2022-08-03T13:41:25;2.03;;;1.65;;
52354;SDS011;38286;51.156;17.038;2022-08-03T13:43:50;1.60;;;1.50;;
52354;SDS011;38286;51.156;17.038;2022-08-03T13:46:16;2.95;;;1.65;;
52354;SDS011;38286;51.156;17.038;2022-08-03T13:48:42;1.70;;;1.60;;
52354;SDS011;38286;51.156;17.038;2022-08-03T13:51:07;3.38;;;1.70;;
52354;SDS011;38286;51.156;17.038;2022-08-03T13:53:33;6.32;;;1.60;;
52354;SDS011;38286;51.156;17.038;2022-08-03T13:55:58;2.58;;;1.73;;
52354;SDS011;38286;51.156;17.038;2022-08-03T13:58:24;2.80;;;1.58;;
52354;SDS011;38286;51.156;17.038;2022-08-03T14:00:49;3.75;;;1.63;;
52354;SDS011;38286;51.156;17.038;2022-08-03T14:03:15;3.28;;;1.95;;
52354;SDS011;38286;51.156;17.038;2022-08-03T14:05:41;2.80;;;1.80;;
52354;SDS011;38286;51.156;17.038;2022-08-03T14:08:07;2.85;;;1.73;;
52354;SDS011;38286;51.156;17.038;2022-08-03T14:10:33;1.60;;;1.50;;
52354;SDS011;38286;51.156;17.038;2022-08-03T14:13:03;3.90;;;2.00;;
52354;SDS011;38286;51.156;17.038;2022-08-03T14:15:29;3.15;;;1.75;;
52354;SDS011;38286;51.156;17.038;2022-08-03T14:17:54;3.60;;;1.90;;
52354;SDS011;38286;51.156;17.038;2022-08-03T14:20:21;1.85;;;1.75;;
52354;SDS011;38286;51.156;17.038;2022-08-03T14:22:46;1.73;;;1.58;;
52354;SDS011;38286;51.156;17.038;2022-08-03T14:25:12;2.63;;;1.70;;
52354;SDS011;38286;51.156;17.038;2022-08-03T14:27:37;1.92;;;1.70;;
52354;SDS011;38286;51.156;17.038;2022-08-03T14:30:03;2.45;;;1.60;;
52354;SDS011;38286;51.156;17.038;2022-08-03T14:32:29;3.97;;;1.75;;
52354;SDS011;38286;51.156;17.038;2022-08-03T14:34:55;2.10;;;1.90;;
52354;SDS011;38286;51.156;17.038;2022-08-03T14:37:20;1.70;;;1.60;;
52354;SDS011;38286;51.156;17.038;2022-08-03T14:39:46;2.22;;;1.60;;
52354;SDS011;38286;51.156;17.038;2022-08-03T14:42:12;1.70;;;1.60;;
52354;SDS011;38286;51.156;17.038;2022-08-03T14:44:39;7.05;;;1.65;;
52354;SDS011;38286;51.156;17.038;2022-08-03T14:47:05;2.97;;;1.52;;
52354;SDS011;38286;51.156;17.038;2022-08-03T14:49:30;2.67;;;1.67;;
52354;SDS011;38286;51.156;17.038;2022-08-03T14:51:56;3.40;;;1.98;;
52354;SDS011;38286;51.156;17.038;2022-08-03T14:54:22;5.00;;;1.60;;
52354;SDS011;38286;51.156;17.038;2022-08-03T14:56:47;5.13;;;1.90;;
52354;SDS011;38286;51.156;17.038;2022-08-03T14:59:13;4.30;;;1.80;;
52354;SDS011;38286;51.156;17.038;2022-08-03T15:01:39;5.80;;;1.70;;
52354;SDS011;38286;51.156;17.038;2022-08-03T15:04:04;2.25;;;1.60;;
52354;SDS011;38286;51.156;17.038;2022-08-03T15:06:30;2.55;;;1.60;;
52354;SDS011;38286;51.156;17.038;2022-08-03T15:08:56;3.42;;;1.90;;
52354;SDS011;38286;51.156;17.038;2022-08-03T15:11:21;1.58;;;1.48;;
52354;SDS011;38286;51.156;17.038;2022-08-03T15:13:47;3.13;;;1.50;;
52354;SDS011;38286;51.156;17.038;2022-08-03T15:16:12;2.55;;;1.90;;
52354;SDS011;38286;51.156;17.038;2022-08-03T15:18:38;8.98;;;1.85;;
52354;SDS011;38286;51.156;17.038;2022-08-03T15:21:03;5.60;;;1.63;;
52354;SDS011;38286;51.156;17.038;2022-08-03T15:23:30;12.40;;;2.03;;
52354;SDS011;38286;51.156;17.038;2022-08-03T15:25:56;2.40;;;1.70;;
52354;SDS011;38286;51.156;17.038;2022-08-03T15:28:21;2.20;;;1.50;;
52354;SDS011;38286;51.156;17.038;2022-08-03T15:30:47;2.80;;;1.60;;
52354;SDS011;38286;51.156;17.038;2022-08-03T15:33:13;2.25;;;1.63;;
52354;SDS011;38286;51.156;17.038;2022-08-03T15:35:38;4.95;;;1.58;;
52354;SDS011;38286;51.156;17.038;2022-08-03T15:38:04;4.05;;;1.60;;
52354;SDS011;38286;51.156;17.038;2022-08-03T15:40:29;4.07;;;2.30;;
52354;SDS011;38286;51.156;17.038;2022-08-03T15:42:55;2.22;;;1.70;;
52354;SDS011;38286;51.156;17.038;2022-08-03T15:45:21;2.75;;;1.70;;
52354;SDS011;38286;51.156;17.038;2022-08-03T15:47:46;6.10;;;1.80;;
52354;SDS011;38286;51.156;17.038;2022-08-03T15:50:12;2.58;;;2.00;;
52354;SDS011;38286;51.156;17.038;2022-08-03T15:52:38;2.72;;;1.77;;
52354;SDS011;38286;51.156;17.038;2022-08-03T15:55:03;2.05;;;1.63;;
52354;SDS011;38286;51.156;17.038;2022-08-03T15:57:29;2.20;;;2.00;;
52354;SDS011;38286;51.156;17.038;2022-08-03T15:59:55;1.98;;;1.60;;
52354;SDS011;38286;51.156;17.038;2022-08-03T16:02:20;3.90;;;1.60;;
52354;SDS011;38286;51.156;17.038;2022-08-03T16:04:46;3.88;;;1.70;;
52354;SDS011;38286;51.156;17.038;2022-08-03T16:07:11;1.70;;;1.60;;
52354;SDS011;38286;51.156;17.038;2022-08-03T16:09:40;3.95;;;1.75;;
52354;SDS011;38286;51.156;17.038;2022-08-03T16:12:06;8.10;;;1.80;;
52354;SDS011;38286;51.156;17.038;2022-08-03T16:14:32;4.00;;;1.73;;
52354;SDS011;38286;51.156;17.038;2022-08-03T16:16:57;2.50;;;1.80;;
52354;SDS011;38286;51.156;17.038;2022-08-03T16:19:23;2.35;;;1.70;;
52354;SDS011;38286;51.156;17.038;2022-08-03T16:21:49;4.57;;;1.90;;
52354;SDS011;38286;51.156;17.038;2022-08-03T16:24:14;3.47;;;1.70;;
52354;SDS011;38286;51.156;17.038;2022-08-03T16:26:40;3.50;;;1.52;;
52354;SDS011;38286;51.156;17.038;2022-08-03T16:29:05;2.95;;;1.80;;
52354;SDS011;38286;51.156;17.038;2022-08-03T16:31:31;3.60;;;1.83;;
52354;SDS011;38286;51.156;17.038;2022-08-03T16:33:56;4.13;;;1.95;;
52354;SDS011;38286;51.156;17.038;2022-08-03T16:36:23;3.38;;;1.67;;
52354;SDS011;38286;51.156;17.038;2022-08-03T16:38:48;4.50;;;1.70;;
52354;SDS011;38286;51.156;17.038;2022-08-03T16:41:14;3.03;;;1.98;;
52354;SDS011;38286;51.156;17.038;2022-08-03T16:43:40;2.22;;;1.73;;
52354;SDS011;38286;51.156;17.038;2022-08-03T16:46:05;6.35;;;1.88;;
52354;SDS011;38286;51.156;17.038;2022-08-03T16:48:30;2.35;;;1.90;;
52354;SDS011;38286;51.156;17.038;2022-08-03T16:50:56;2.33;;;1.73;;
52354;SDS011;38286;51.156;17.038;2022-08-03T16:53:22;2.08;;;1.73;;
52354;SDS011;38286;51.156;17.038;2022-08-03T16:55:47;2.20;;;2.00;;
52354;SDS011;38286;51.156;17.038;2022-08-03T16:58:13;3.67;;;2.08;;
52354;SDS011;38286;51.156;17.038;2022-08-03T17:00:43;2.72;;;1.90;;
52354;SDS011;38286;51.156;17.038;2022-08-03T17:03:09;3.15;;;2.20;;
52354;SDS011;38286;51.156;17.038;2022-08-03T17:05:36;3.40;;;2.03;;
52354;SDS011;38286;51.156;17.038;2022-08-03T17:08:01;4.63;;;1.90;;
52354;SDS011;38286;51.156;17.038;2022-08-03T17:10:27;4.47;;;1.90;;
52354;SDS011;38286;51.156;17.038;2022-08-03T17:12:53;3.35;;;2.00;;
52354;SDS011;38286;51.156;17.038;2022-08-03T17:15:19;7.05;;;2.40;;
52354;SDS011;38286;51.156;17.038;2022-08-03T17:17:47;6.43;;;2.83;;
52354;SDS011;38286;51.156;17.038;2022-08-03T17:20:20;6.80;;;2.88;;
52354;SDS011;38286;51.156;17.038;2022-08-03T17:25:45;4.03;;;2.83;;
52354;SDS011;38286;51.156;17.038;2022-08-03T17:28:11;4.53;;;2.60;;
52354;SDS011;38286;51.156;17.038;2022-08-03T17:30:38;5.85;;;2.65;;
52354;SDS011;38286;51.156;17.038;2022-08-03T17:33:23;8.07;;;2.63;;
52354;SDS011;38286;51.156;17.038;2022-08-03T17:35:48;3.92;;;2.50;;
52354;SDS011;38286;51.156;17.038;2022-08-03T17:38:20;3.85;;;2.10;;
52354;SDS011;38286;51.156;17.038;2022-08-03T17:40:46;5.93;;;3.60;;
52354;SDS011;38286;51.156;17.038;2022-08-03T17:43:13;3.88;;;2.75;;
52354;SDS011;38286;51.156;17.038;2022-08-03T17:45:40;3.75;;;2.83;;
52354;SDS011;38286;51.156;17.038;2022-08-03T17:48:05;4.15;;;2.50;;
52354;SDS011;38286;51.156;17.038;2022-08-03T17:50:41;6.05;;;3.40;;
52354;SDS011;38286;51.156;17.038;2022-08-03T17:53:15;25.65;;;4.03;;
52354;SDS011;38286;51.156;17.038;2022-08-03T17:55:46;5.13;;;2.78;;
52354;SDS011;38286;51.156;17.038;2022-08-03T17:58:18;4.53;;;2.58;;
52354;SDS011;38286;51.156;17.038;2022-08-03T18:00:50;5.20;;;2.65;;
52354;SDS011;38286;51.156;17.038;2022-08-03T18:03:43;4.05;;;2.70;;
52354;SDS011;38286;51.156;17.038;2022-08-03T18:06:11;6.57;;;2.60;;
52354;SDS011;38286;51.156;17.038;2022-08-03T18:08:38;4.10;;;2.67;;
52354;SDS011;38286;51.156;17.038;2022-08-03T18:11:12;5.72;;;2.80;;
52354;SDS011;38286;51.156;17.038;2022-08-03T18:13:45;4.15;;;2.80;;
52354;SDS011;38286;51.156;17.038;2022-08-03T18:16:38;2.92;;;2.40;;
52354;SDS011;38286;51.156;17.038;2022-08-03T18:19:07;4.60;;;2.65;;
52354;SDS011;38286;51.156;17.038;2022-08-03T18:21:35;6.60;;;2.90;;
52354;SDS011;38286;51.156;17.038;2022-08-03T18:24:01;4.28;;;3.03;;
52354;SDS011;38286;51.156;17.038;2022-08-03T18:26:28;3.53;;;2.97;;
52354;SDS011;38286;51.156;17.038;2022-08-03T18:28:54;4.43;;;3.13;;
52354;SDS011;38286;51.156;17.038;2022-08-03T18:31:20;5.55;;;2.90;;
52354;SDS011;38286;51.156;17.038;2022-08-03T18:33:47;4.22;;;3.40;;
52354;SDS011;38286;51.156;17.038;2022-08-03T18:36:13;4.05;;;2.90;;
52354;SDS011;38286;51.156;17.038;2022-08-03T18:38:42;7.38;;;3.38;;
52354;SDS011;38286;51.156;17.038;2022-08-03T18:41:08;7.07;;;3.15;;
52354;SDS011;38286;51.156;17.038;2022-08-03T18:43:37;4.18;;;3.22;;
52354;SDS011;38286;51.156;17.038;2022-08-03T18:46:05;3.75;;;3.42;;
52354;SDS011;38286;51.156;17.038;2022-08-03T18:48:34;4.28;;;3.47;;
52354;SDS011;38286;51.156;17.038;2022-08-03T18:51:06;8.20;;;3.37;;
52354;SDS011;38286;51.156;17.038;2022-08-03T19:04:43;5.60;;;3.97;;
52354;SDS011;38286;51.156;17.038;2022-08-03T19:06:51;4.93;;;3.63;;
52354;SDS011;38286;51.156;17.038;2022-08-03T19:09:21;6.10;;;3.65;;
52354;SDS011;38286;51.156;17.038;2022-08-03T19:11:51;4.72;;;3.58;;
52354;SDS011;38286;51.156;17.038;2022-08-03T19:14:20;6.25;;;3.53;;
52354;SDS011;38286;51.156;17.038;2022-08-03T19:16:47;5.78;;;4.18;;
52354;SDS011;38286;51.156;17.038;2022-08-03T19:19:16;7.47;;;3.72;;
52354;SDS011;38286;51.156;17.038;2022-08-03T19:21:41;4.35;;;3.92;;
52354;SDS011;38286;51.156;17.038;2022-08-03T19:24:09;8.30;;;4.03;;
52354;SDS011;38286;51.156;17.038;2022-08-03T19:26:37;5.32;;;3.67;;
52354;SDS011;38286;51.156;17.038;2022-08-03T19:29:09;7.20;;;4.13;;
52354;SDS011;38286;51.156;17.038;2022-08-03T19:31:38;4.65;;;4.00;;
52354;SDS011;38286;51.156;17.038;2022-08-03T19:34:05;5.38;;;3.83;;
52354;SDS011;38286;51.156;17.038;2022-08-03T19:36:33;4.38;;;3.58;;
52354;SDS011;38286;51.156;17.038;2022-08-03T19:39:00;5.13;;;4.45;;
52354;SDS011;38286;51.156;17.038;2022-08-03T19:41:32;5.07;;;4.13;;
52354;SDS011;38286;51.156;17.038;2022-08-03T19:44:02;6.35;;;4.15;;
52354;SDS011;38286;51.156;17.038;2022-08-03T19:46:33;5.45;;;4.28;;
52354;SDS011;38286;51.156;17.038;2022-08-03T19:49:10;4.85;;;4.35;;
52354;SDS011;38286;51.156;17.038;2022-08-03T19:51:36;8.10;;;4.40;;
52354;SDS011;38286;51.156;17.038;2022-08-03T19:54:02;8.85;;;4.50;;
52354;SDS011;38286;51.156;17.038;2022-08-03T19:56:31;5.32;;;4.28;;
52354;SDS011;38286;51.156;17.038;2022-08-03T19:58:57;5.15;;;4.50;;
52354;SDS011;38286;51.156;17.038;2022-08-03T20:01:23;6.60;;;5.15;;
52354;SDS011;38286;51.156;17.038;2022-08-03T20:03:49;7.75;;;4.55;;
52354;SDS011;38286;51.156;17.038;2022-08-03T20:06:17;5.82;;;4.65;;
52354;SDS011;38286;51.156;17.038;2022-08-03T20:08:45;6.25;;;4.47;;
52354;SDS011;38286;51.156;17.038;2022-08-03T20:11:11;9.98;;;4.70;;
52354;SDS011;38286;51.156;17.038;2022-08-03T20:13:37;6.93;;;4.60;;
52354;SDS011;38286;51.156;17.038;2022-08-03T20:16:03;6.80;;;4.63;;
52354;SDS011;38286;51.156;17.038;2022-08-03T20:18:29;7.70;;;5.10;;
52354;SDS011;38286;51.156;17.038;2022-08-03T20:20:56;7.15;;;4.57;;
52354;SDS011;38286;51.156;17.038;2022-08-03T20:23:23;7.75;;;4.82;;
52354;SDS011;38286;51.156;17.038;2022-08-03T20:25:51;7.72;;;4.80;;
52354;SDS011;38286;51.156;17.038;2022-08-03T20:28:34;6.50;;;4.88;;
52354;SDS011;38286;51.156;17.038;2022-08-03T20:31:03;6.60;;;4.97;;
52354;SDS011;38286;51.156;17.038;2022-08-03T20:33:29;6.47;;;4.93;;
52354;SDS011;38286;51.156;17.038;2022-08-03T20:35:55;5.68;;;4.70;;
52354;SDS011;38286;51.156;17.038;2022-08-03T20:38:20;10.85;;;4.75;;
52354;SDS011;38286;51.156;17.038;2022-08-03T20:40:46;8.23;;;4.80;;
52354;SDS011;38286;51.156;17.038;2022-08-03T20:43:12;10.90;;;5.10;;
52354;SDS011;38286;51.156;17.038;2022-08-03T20:45:37;7.07;;;4.78;;
52354;SDS011;38286;51.156;17.038;2022-08-03T20:48:03;9.73;;;4.82;;
52354;SDS011;38286;51.156;17.038;2022-08-03T20:50:29;9.23;;;5.00;;
52354;SDS011;38286;51.156;17.038;2022-08-03T20:52:56;5.88;;;4.60;;
52354;SDS011;38286;51.156;17.038;2022-08-03T20:55:22;5.25;;;4.57;;
52354;SDS011;38286;51.156;17.038;2022-08-03T20:57:48;7.38;;;4.75;;
52354;SDS011;38286;51.156;17.038;2022-08-03T21:00:14;5.80;;;4.90;;
52354;SDS011;38286;51.156;17.038;2022-08-03T21:02:42;7.57;;;4.80;;
52354;SDS011;38286;51.156;17.038;2022-08-03T21:05:07;6.75;;;4.53;;
52354;SDS011;38286;51.156;17.038;2022-08-03T21:08:07;7.00;;;5.15;;
52354;SDS011;38286;51.156;17.038;2022-08-03T21:10:28;9.85;;;4.82;;
52354;SDS011;38286;51.156;17.038;2022-08-03T21:15:28;6.57;;;4.85;;
52354;SDS011;38286;51.156;17.038;2022-08-03T21:17:56;7.15;;;4.90;;
52354;SDS011;38286;51.156;17.038;2022-08-03T21:20:24;9.90;;;5.05;;
52354;SDS011;38286;51.156;17.038;2022-08-03T21:22:52;10.38;;;5.60;;
52354;SDS011;38286;51.156;17.038;2022-08-03T21:25:27;5.65;;;5.00;;
52354;SDS011;38286;51.156;17.038;2022-08-03T21:30:20;7.07;;;5.03;;
52354;SDS011;38286;51.156;17.038;2022-08-03T21:32:47;15.27;;;6.13;;
52354;SDS011;38286;51.156;17.038;2022-08-03T21:35:14;7.63;;;5.60;;
52354;SDS011;38286;51.156;17.038;2022-08-03T21:37:40;12.00;;;5.90;;
52354;SDS011;38286;51.156;17.038;2022-08-03T21:40:07;10.88;;;5.93;;
52354;SDS011;38286;51.156;17.038;2022-08-03T21:42:35;11.45;;;6.22;;
52354;SDS011;38286;51.156;17.038;2022-08-03T21:45:03;10.18;;;5.55;;
52354;SDS011;38286;51.156;17.038;2022-08-03T21:47:30;7.22;;;5.43;;
52354;SDS011;38286;51.156;17.038;2022-08-03T21:50:00;7.60;;;6.03;;
52354;SDS011;38286;51.156;17.038;2022-08-03T21:52:27;7.50;;;6.22;;
52354;SDS011;38286;51.156;17.038;2022-08-03T21:54:53;9.60;;;6.03;;
52354;SDS011;38286;51.156;17.038;2022-08-03T21:57:22;9.07;;;6.15;;
52354;SDS011;38286;51.156;17.038;2022-08-03T21:59:53;10.07;;;6.45;;
52354;SDS011;38286;51.156;17.038;2022-08-03T22:02:22;8.63;;;6.15;;
52354;SDS011;38286;51.156;17.038;2022-08-03T22:04:51;9.85;;;6.22;;
52354;SDS011;38286;51.156;17.038;2022-08-03T22:07:17;8.98;;;6.20;;
52354;SDS011;38286;51.156;17.038;2022-08-03T22:09:44;9.07;;;6.10;;
52354;SDS011;38286;51.156;17.038;2022-08-03T22:12:11;7.43;;;6.25;;
52354;SDS011;38286;51.156;17.038;2022-08-03T22:14:37;7.30;;;6.13;;
52354;SDS011;38286;51.156;17.038;2022-08-03T22:17:02;7.15;;;6.45;;
52354;SDS011;38286;51.156;17.038;2022-08-03T22:19:30;7.70;;;5.75;;
52354;SDS011;38286;51.156;17.038;2022-08-03T22:21:56;11.60;;;6.25;;
52354;SDS011;38286;51.156;17.038;2022-08-03T22:24:23;7.80;;;6.18;;
52354;SDS011;38286;51.156;17.038;2022-08-03T22:26:52;9.15;;;6.75;;
52354;SDS011;38286;51.156;17.038;2022-08-03T22:29:36;9.52;;;6.10;;
52354;SDS011;38286;51.156;17.038;2022-08-03T22:32:04;9.18;;;6.32;;
52354;SDS011;38286;51.156;17.038;2022-08-03T22:34:30;8.57;;;6.63;;
52354;SDS011;38286;51.156;17.038;2022-08-03T22:36:59;6.88;;;6.10;;
52354;SDS011;38286;51.156;17.038;2022-08-03T22:39:27;7.85;;;6.22;;
52354;SDS011;38286;51.156;17.038;2022-08-03T22:41:53;7.57;;;6.30;;
52354;SDS011;38286;51.156;17.038;2022-08-03T22:44:19;7.78;;;6.90;;
52354;SDS011;38286;51.156;17.038;2022-08-03T22:46:46;9.40;;;6.70;;
52354;SDS011;38286;51.156;17.038;2022-08-03T22:49:11;7.10;;;6.40;;
52354;SDS011;38286;51.156;17.038;2022-08-03T22:51:38;8.55;;;6.38;;
52354;SDS011;38286;51.156;17.038;2022-08-03T22:54:04;7.40;;;6.60;;
52354;SDS011;38286;51.156;17.038;2022-08-03T22:56:30;8.65;;;7.05;;
52354;SDS011;38286;51.156;17.038;2022-08-03T22:58:56;8.30;;;6.75;;
52354;SDS011;38286;51.156;17.038;2022-08-03T23:01:21;10.40;;;6.22;;
52354;SDS011;38286;51.156;17.038;2022-08-03T23:03:50;9.45;;;6.80;;
52354;SDS011;38286;51.156;17.038;2022-08-03T23:06:18;8.05;;;6.60;;
52354;SDS011;38286;51.156;17.038;2022-08-03T23:08:43;9.13;;;6.57;;
52354;SDS011;38286;51.156;17.038;2022-08-03T23:11:10;8.95;;;6.50;;
52354;SDS011;38286;51.156;17.038;2022-08-03T23:13:36;7.70;;;6.45;;
52354;SDS011;38286;51.156;17.038;2022-08-03T23:16:04;10.48;;;6.10;;
52354;SDS011;38286;51.156;17.038;2022-08-03T23:18:33;14.85;;;7.15;;
52354;SDS011;38286;51.156;17.038;2022-08-03T23:21:00;8.70;;;6.63;;
52354;SDS011;38286;51.156;17.038;2022-08-03T23:23:26;7.80;;;6.13;;
52354;SDS011;38286;51.156;17.038;2022-08-03T23:25:53;7.40;;;6.43;;
52354;SDS011;38286;51.156;17.038;2022-08-03T23:28:19;10.93;;;6.20;;
52354;SDS011;38286;51.156;17.038;2022-08-03T23:30:45;10.82;;;6.93;;
52354;SDS011;38286;51.156;17.038;2022-08-03T23:33:14;9.68;;;7.03;;
52354;SDS011;38286;51.156;17.038;2022-08-03T23:35:41;8.27;;;6.60;;
52354;SDS011;38286;51.156;17.038;2022-08-03T23:38:22;7.38;;;6.63;;
52354;SDS011;38286;51.156;17.038;2022-08-03T23:41:09;8.52;;;6.50;;
52354;SDS011;38286;51.156;17.038;2022-08-03T23:43:35;8.05;;;6.68;;
52354;SDS011;38286;51.156;17.038;2022-08-03T23:46:02;10.25;;;6.70;;
52354;SDS011;38286;51.156;17.038;2022-08-03T23:48:28;8.40;;;7.00;;
52354;SDS011;38286;51.156;17.038;2022-08-03T23:51:11;10.20;;;6.88;;
52354;SDS011;38286;51.156;17.038;2022-08-03T23:53:47;9.10;;;6.68;;
52354;SDS011;38286;51.156;17.038;2022-08-03T23:56:23;10.02;;;7.40;;
